createdAt,value
2018-07-11T00:02:04.019Z,95.70
2018-07-11T00:04:32.349Z,95.80
2018-07-11T00:07:00.722Z,95.70
2018-07-11T00:09:29.116Z,96.00
2018-07-11T00:11:57.417Z,96.00
2018-07-11T00:14:25.764Z,96.00
2018-07-11T00:16:59.666Z,96.10
2018-07-11T00:19:27.964Z,96.10
2018-07-11T00:21:56.228Z,96.10
2018-07-11T00:24:24.536Z,96.20
2018-07-11T00:26:52.998Z,96.20
2018-07-11T00:29:21.332Z,96.20
2018-07-11T00:31:49.661Z,96.20
2018-07-11T00:34:17.966Z,96.10
2018-07-11T00:36:46.344Z,96.10
2018-07-11T00:39:14.628Z,96.10
2018-07-11T00:41:43.019Z,96.10
2018-07-11T00:44:11.682Z,96.10
2018-07-11T00:46:40.021Z,96.10
2018-07-11T00:49:08.390Z,96.10
2018-07-11T00:51:36.687Z,96.00
2018-07-11T00:54:04.960Z,96.00
2018-07-11T00:56:33.309Z,96.00
2018-07-11T00:59:08.319Z,96.00
2018-07-11T01:01:37.057Z,96.00
2018-07-11T01:04:05.359Z,96.00
2018-07-11T01:06:33.669Z,96.00
2018-07-11T01:09:01.964Z,96.00
2018-07-11T01:11:35.386Z,96.30
2018-07-11T01:14:03.737Z,95.90
2018-07-11T01:16:32.901Z,96.00
2018-07-11T01:19:04.359Z,95.90
2018-07-11T01:21:33.321Z,95.90
2018-07-11T01:24:01.624Z,95.90
2018-07-11T01:26:31.129Z,95.70
2018-07-11T01:28:59.480Z,95.80
2018-07-11T01:31:27.865Z,95.90
2018-07-11T01:33:56.650Z,95.90
2018-07-11T01:36:25.443Z,95.90
2018-07-11T01:38:53.915Z,96.00
2018-07-11T01:41:22.251Z,96.10
2018-07-11T01:43:50.603Z,96.10
2018-07-11T01:46:18.915Z,96.00
2018-07-11T01:48:47.217Z,96.20
2018-07-11T01:51:15.548Z,96.30
2018-07-11T01:53:43.904Z,96.20
2018-07-11T01:56:12.314Z,96.20
2018-07-11T01:58:44.074Z,96.20
2018-07-11T02:01:12.601Z,96.40
2018-07-11T02:03:41.386Z,96.40
2018-07-11T02:06:09.728Z,96.40
2018-07-11T02:08:38.114Z,96.50
2018-07-11T02:11:06.509Z,96.40
2018-07-11T02:13:34.872Z,96.40
2018-07-11T02:16:03.221Z,96.40
2018-07-11T02:18:31.598Z,96.50
2018-07-11T02:21:00.235Z,96.40
2018-07-11T02:23:34.748Z,96.90
2018-07-11T02:26:03.220Z,96.50
2018-07-11T02:28:31.928Z,96.50
2018-07-11T02:31:00.322Z,96.50
2018-07-11T02:33:28.623Z,96.60
2018-07-11T02:35:56.959Z,96.50
2018-07-11T02:38:25.233Z,96.50
2018-07-11T02:40:54.130Z,96.50
2018-07-11T02:43:22.446Z,96.60
2018-07-11T02:45:50.834Z,96.50
2018-07-11T02:48:19.132Z,96.50
2018-07-11T02:50:47.454Z,96.50
2018-07-11T02:53:19.915Z,96.40
2018-07-11T02:55:48.705Z,96.40
2018-07-11T02:58:17.032Z,96.30
2018-07-11T03:00:45.365Z,96.50
2018-07-11T03:03:13.952Z,96.30
2018-07-11T03:05:42.372Z,96.20
2018-07-11T03:08:10.996Z,96.10
2018-07-11T03:10:39.416Z,96.20
2018-07-11T03:13:07.984Z,96.20
2018-07-11T03:15:36.492Z,96.10
2018-07-11T03:18:05.029Z,96.20
2018-07-11T03:20:33.374Z,96.00
2018-07-11T03:23:01.718Z,96.10
2018-07-11T03:25:30.161Z,96.20
2018-07-11T03:27:58.460Z,96.20
2018-07-11T03:30:26.788Z,96.10
2018-07-11T03:32:55.143Z,96.10
2018-07-11T03:35:23.456Z,96.10
2018-07-11T03:37:51.934Z,96.10
2018-07-11T03:40:21.314Z,96.00
2018-07-11T03:42:49.650Z,96.00
2018-07-11T03:45:17.983Z,96.00
2018-07-11T03:47:46.286Z,96.00
2018-07-11T03:50:14.620Z,96.10
2018-07-11T03:52:42.991Z,96.00
2018-07-11T03:55:11.340Z,96.00
2018-07-11T03:57:39.701Z,96.00
2018-07-11T04:00:08.050Z,96.00
2018-07-11T04:02:36.469Z,95.80
2018-07-11T04:05:04.799Z,95.90
2018-07-11T04:07:33.298Z,95.70
2018-07-11T04:10:01.594Z,95.60
2018-07-11T04:12:29.881Z,95.60
2018-07-11T04:14:58.532Z,95.60
2018-07-11T04:17:26.855Z,95.40
2018-07-11T04:19:55.393Z,95.40
2018-07-11T04:22:23.769Z,95.50
2018-07-11T04:24:52.087Z,95.30
2018-07-11T04:27:20.454Z,95.40
2018-07-11T04:29:48.878Z,95.30
2018-07-11T04:32:17.188Z,95.10
2018-07-11T04:34:45.496Z,95.30
2018-07-11T04:37:13.878Z,95.30
2018-07-11T04:39:42.156Z,95.10
2018-07-11T04:42:10.494Z,95.20
2018-07-11T04:44:38.816Z,95.00
2018-07-11T04:47:07.131Z,94.90
2018-07-11T04:49:35.454Z,95.00
2018-07-11T04:52:03.789Z,94.80
2018-07-11T04:54:32.069Z,94.90
2018-07-11T04:57:00.392Z,95.00
2018-07-11T04:59:28.690Z,94.90
2018-07-11T05:01:57.032Z,94.90
2018-07-11T05:04:25.472Z,94.90
2018-07-11T05:06:54.078Z,95.10
2018-07-11T05:09:22.436Z,95.10
2018-07-11T05:11:50.819Z,95.00
2018-07-11T05:14:19.123Z,95.10
2018-07-11T05:16:47.521Z,95.10
2018-07-11T05:19:15.805Z,95.00
2018-07-11T05:21:44.215Z,95.00
2018-07-11T05:24:12.512Z,94.80
2018-07-11T05:26:40.836Z,94.80
2018-07-11T05:29:09.120Z,94.70
2018-07-11T05:31:37.481Z,94.60
2018-07-11T05:34:05.904Z,94.40
2018-07-11T05:36:34.253Z,94.10
2018-07-11T05:39:02.619Z,94.10
2018-07-11T05:41:31.059Z,94.00
2018-07-11T05:43:59.597Z,94.00
2018-07-11T05:46:28.028Z,94.00
2018-07-11T05:48:56.350Z,93.90
2018-07-11T05:51:24.687Z,93.80
2018-07-11T05:53:53.000Z,93.70
2018-07-11T05:56:21.351Z,93.60
2018-07-11T05:58:49.680Z,93.70
2018-07-11T06:01:18.031Z,93.60
2018-07-11T06:03:46.364Z,93.30
2018-07-11T06:06:14.701Z,93.20
2018-07-11T06:08:43.074Z,92.90
2018-07-11T06:11:17.475Z,92.80
2018-07-11T06:13:45.879Z,92.70
2018-07-11T06:16:14.155Z,92.60
2018-07-11T06:18:42.491Z,92.40
2018-07-11T06:21:10.900Z,92.30
2018-07-11T06:23:39.324Z,92.10
2018-07-11T06:26:07.762Z,92.20
2018-07-11T06:28:36.137Z,92.10
2018-07-11T06:31:04.797Z,91.90
2018-07-11T06:33:33.521Z,92.10
2018-07-11T06:36:01.800Z,92.10
2018-07-11T06:38:30.073Z,91.90
2018-07-11T06:40:58.410Z,91.80
2018-07-11T06:43:26.746Z,92.00
2018-07-11T06:45:55.053Z,91.60
2018-07-11T06:48:23.420Z,91.70
2018-07-11T06:50:51.743Z,91.50
2018-07-11T06:53:20.053Z,91.50
2018-07-11T06:55:48.457Z,91.40
2018-07-11T06:58:16.783Z,91.60
2018-07-11T07:00:45.154Z,91.80
2018-07-11T07:03:13.505Z,91.80
2018-07-11T07:05:41.829Z,91.90
2018-07-11T07:08:10.156Z,91.90
2018-07-11T07:10:38.509Z,91.90
2018-07-11T07:13:06.851Z,91.80
2018-07-11T07:15:35.251Z,91.80
2018-07-11T07:18:03.599Z,91.70
2018-07-11T07:20:31.996Z,91.70
2018-07-11T07:23:00.386Z,91.60
2018-07-11T07:25:28.738Z,91.80
2018-07-11T07:27:57.090Z,91.30
2018-07-11T07:30:25.569Z,91.30
2018-07-11T07:32:53.935Z,91.20
2018-07-11T07:35:22.271Z,91.00
2018-07-11T07:37:50.723Z,91.10
2018-07-11T07:40:19.580Z,91.40
2018-07-11T07:42:47.918Z,91.40
2018-07-11T07:45:16.568Z,91.30
2018-07-11T07:47:45.869Z,91.40
2018-07-11T07:50:15.395Z,91.30
2018-07-11T07:52:43.912Z,91.20
2018-07-11T07:55:12.326Z,91.30
2018-07-11T07:57:41.405Z,91.20
2018-07-11T08:00:09.814Z,91.10
2018-07-11T08:02:38.113Z,91.10
2018-07-11T08:05:07.671Z,91.30
2018-07-11T08:07:37.102Z,91.10
2018-07-11T08:10:06.523Z,91.30
2018-07-11T08:12:35.242Z,91.10
2018-07-11T08:15:05.077Z,90.90
2018-07-11T08:17:33.385Z,90.90
2018-07-11T08:20:01.737Z,90.80
2018-07-11T08:23:38.811Z,91.00
2018-07-11T08:26:18.516Z,91.00
2018-07-11T08:29:59.080Z,91.10
2018-07-11T08:32:41.916Z,91.00
2018-07-11T08:35:37.187Z,90.80
2018-07-11T08:38:16.859Z,90.50
2018-07-11T08:40:57.045Z,90.70
2018-07-11T08:44:40.037Z,90.70
2018-07-11T08:47:21.556Z,90.80
2018-07-11T08:50:02.166Z,91.30
2018-07-11T08:52:57.932Z,91.40
2018-07-11T08:55:41.852Z,91.60
2018-07-11T08:58:21.744Z,91.30
2018-07-11T09:00:59.639Z,91.40
2018-07-11T09:05:41.120Z,91.30
2018-07-11T09:08:21.153Z,91.40
2018-07-11T09:13:04.366Z,91.60
2018-07-11T09:18:45.915Z,91.40
2018-07-11T09:21:24.395Z,91.80
2018-07-11T09:24:03.229Z,92.10
2018-07-11T09:26:31.572Z,92.20
2018-07-11T09:28:59.895Z,92.20
2018-07-11T09:31:28.295Z,92.10
2018-07-11T09:33:56.668Z,91.70
2018-07-11T09:36:25.044Z,91.40
2018-07-11T09:38:53.746Z,91.10
2018-07-11T09:41:22.071Z,90.80
2018-07-11T09:43:50.492Z,90.50
2018-07-11T09:46:18.831Z,90.40
2018-07-11T09:48:47.836Z,90.30
2018-07-11T09:51:16.126Z,90.30
2018-07-11T09:53:44.575Z,90.30
2018-07-11T09:56:12.921Z,90.20
2018-07-11T09:58:41.840Z,90.00
2018-07-11T10:01:15.682Z,89.30
2018-07-11T10:03:44.106Z,89.10
2018-07-11T10:06:12.485Z,88.90
2018-07-11T10:08:40.874Z,88.30
2018-07-11T10:11:09.227Z,88.60
2018-07-11T10:13:37.536Z,88.90
2018-07-11T10:16:05.897Z,89.20
2018-07-11T10:18:34.307Z,89.20
2018-07-11T10:21:02.717Z,89.30
2018-07-11T10:23:31.030Z,89.60
2018-07-11T10:25:59.345Z,89.20
2018-07-11T10:28:27.652Z,90.10
2018-07-11T10:30:56.084Z,89.20
2018-07-11T10:33:24.445Z,88.60
2018-07-11T10:35:52.912Z,88.70
2018-07-11T10:38:21.282Z,88.50
2018-07-11T10:40:49.667Z,88.80
2018-07-11T10:43:18.934Z,88.80
2018-07-11T10:45:48.032Z,89.10
2018-07-11T10:50:44.475Z,88.80
2018-07-11T10:53:12.810Z,88.70
2018-07-11T10:55:41.161Z,88.40
2018-07-11T10:58:09.449Z,88.20
2018-07-11T11:00:37.771Z,88.40
2018-07-11T11:03:06.036Z,87.90
2018-07-11T11:05:34.319Z,89.20
2018-07-11T11:08:02.706Z,89.80
2018-07-11T11:10:31.052Z,90.20
2018-07-11T11:13:00.093Z,90.90
2018-07-11T11:15:28.515Z,91.80
2018-07-11T11:17:56.857Z,92.90
2018-07-11T11:20:25.280Z,94.10
2018-07-11T11:22:53.686Z,94.90
2018-07-11T11:25:22.039Z,95.40
2018-07-11T11:27:50.388Z,96.10
2018-07-11T11:30:18.804Z,96.20
2018-07-11T11:32:47.188Z,97.70
2018-07-11T11:35:15.544Z,98.40
2018-07-11T11:37:44.015Z,98.80
2018-07-11T11:40:12.353Z,99.20
2018-07-11T11:42:41.479Z,99.80
2018-07-11T11:47:38.174Z,99.90
2018-07-11T11:50:06.530Z,99.90
2018-07-11T11:55:02.928Z,99.40
2018-07-11T11:57:31.304Z,99.60
2018-07-11T11:59:59.714Z,99.60
2018-07-11T12:02:28.024Z,99.90
2018-07-11T12:04:56.451Z,99.60
2018-07-11T12:09:59.585Z,99.30
2018-07-11T12:12:27.928Z,99.60
2018-07-11T12:14:56.277Z,99.00
2018-07-11T12:17:24.610Z,99.30
2018-07-11T12:19:52.955Z,99.40
2018-07-11T12:22:23.588Z,99.40
2018-07-11T12:24:52.241Z,99.60
2018-07-11T12:27:20.659Z,99.40
2018-07-11T12:29:50.111Z,99.10
2018-07-11T12:32:18.600Z,99.10
2018-07-11T12:34:47.116Z,99.10
2018-07-11T12:37:16.523Z,99.20
2018-07-11T12:39:45.221Z,98.30
2018-07-11T12:42:13.852Z,98.40
2018-07-11T12:44:42.211Z,98.60
2018-07-11T12:47:15.979Z,98.00
2018-07-11T12:49:44.459Z,98.70
2018-07-11T12:52:12.819Z,98.80
2018-07-11T12:54:41.236Z,99.10
2018-07-11T12:57:10.108Z,99.00
2018-07-11T12:59:38.557Z,99.10
2018-07-11T13:02:07.379Z,99.50
2018-07-11T13:04:35.721Z,99.90
2018-07-11T13:07:04.368Z,99.60
2018-07-11T13:09:32.903Z,99.60
2018-07-11T13:12:01.491Z,99.80
2018-07-11T13:14:29.956Z,99.90
2018-07-11T13:16:58.744Z,99.90
2018-07-11T13:19:27.182Z,99.90
2018-07-11T13:21:55.626Z,99.90
2018-07-11T13:24:24.651Z,99.90
2018-07-11T13:26:52.980Z,99.90
2018-07-11T13:29:21.386Z,99.90
2018-07-11T13:31:49.773Z,99.90
2018-07-11T13:34:18.157Z,99.90
2018-07-11T13:36:46.526Z,99.90
2018-07-11T13:39:21.154Z,99.90
2018-07-11T13:41:50.815Z,99.90
2018-07-11T13:44:19.152Z,99.90
2018-07-11T13:46:47.679Z,99.90
2018-07-11T13:49:16.028Z,99.90
2018-07-11T13:51:44.386Z,99.90
2018-07-11T13:54:12.791Z,99.90
2018-07-11T13:56:41.212Z,99.90
2018-07-11T13:59:09.612Z,99.50
2018-07-11T14:01:38.082Z,99.40
2018-07-11T14:04:06.688Z,99.40
2018-07-11T14:06:35.208Z,99.30
2018-07-11T14:09:03.780Z,99.60
2018-07-11T14:11:32.196Z,99.00
2018-07-11T14:14:00.587Z,99.30
2018-07-11T14:16:28.967Z,99.30
2018-07-11T14:18:57.319Z,98.60
2018-07-11T14:21:25.656Z,98.70
2018-07-11T14:23:54.533Z,98.70
2018-07-11T14:26:22.883Z,98.30
2018-07-11T14:28:52.476Z,97.90
2018-07-11T14:31:31.329Z,97.80
2018-07-11T14:34:01.871Z,97.30
2018-07-11T14:36:30.684Z,97.70
2018-07-11T14:38:59.197Z,97.30
2018-07-11T14:41:27.525Z,97.20
2018-07-11T14:43:57.010Z,97.30
2018-07-11T14:46:26.201Z,97.30
2018-07-11T14:48:54.554Z,97.40
2018-07-11T14:51:24.114Z,97.60
2018-07-11T14:53:53.252Z,97.30
2018-07-11T14:56:21.800Z,97.40
2018-07-11T14:58:53.038Z,96.60
2018-07-11T15:01:21.745Z,97.40
2018-07-11T15:03:50.112Z,97.50
2018-07-11T15:06:18.794Z,97.20
2018-07-11T15:08:47.819Z,96.60
2018-07-11T15:11:16.421Z,96.80
2018-07-11T15:13:44.909Z,96.50
2018-07-11T15:16:13.469Z,96.80
2018-07-11T15:18:41.958Z,96.80
2018-07-11T15:21:10.322Z,96.80
2018-07-11T15:23:38.699Z,96.00
2018-07-11T15:26:07.049Z,96.80
2018-07-11T15:28:35.429Z,96.20
2018-07-11T15:31:03.846Z,96.40
2018-07-11T15:33:39.050Z,96.50
2018-07-11T15:36:07.611Z,95.40
2018-07-11T15:38:36.794Z,95.50
2018-07-11T15:41:05.146Z,95.60
2018-07-11T15:43:33.500Z,96.20
2018-07-11T15:46:01.839Z,96.30
2018-07-11T15:48:30.209Z,95.80
2018-07-11T15:50:58.482Z,95.90
2018-07-11T15:53:27.317Z,96.30
2018-07-11T15:55:55.781Z,96.20
2018-07-11T15:58:26.754Z,96.40
2018-07-11T16:00:56.327Z,96.20
2018-07-11T16:03:26.616Z,96.50
2018-07-11T16:05:55.690Z,96.70
2018-07-11T16:08:24.306Z,96.50
2018-07-11T16:10:54.968Z,96.80
2018-07-11T16:13:23.463Z,96.80
2018-07-11T16:15:51.889Z,96.80
2018-07-11T16:18:20.297Z,97.20
2018-07-11T16:20:48.873Z,97.10
2018-07-11T16:23:17.255Z,97.30
2018-07-11T16:25:45.637Z,97.50
2018-07-11T16:30:42.538Z,97.80
2018-07-11T16:33:10.874Z,97.70
2018-07-11T16:35:39.255Z,97.90
2018-07-11T16:38:07.657Z,97.80
2018-07-11T16:40:36.069Z,97.40
2018-07-11T16:43:05.216Z,97.80
2018-07-11T16:45:33.991Z,98.40
2018-07-11T16:48:02.483Z,99.00
2018-07-11T16:50:30.851Z,98.60
2018-07-11T16:52:59.354Z,98.80
2018-07-11T16:55:29.296Z,99.00
2018-07-11T16:57:58.349Z,99.40
2018-07-11T17:00:34.932Z,99.00
2018-07-11T17:03:08.479Z,98.70
2018-07-11T17:05:51.984Z,99.00
2018-07-11T17:08:27.516Z,98.80
2018-07-11T17:11:00.144Z,99.10
2018-07-11T17:13:28.597Z,99.20
2018-07-11T17:15:56.953Z,99.40
2018-07-11T17:18:31.175Z,99.20
2018-07-11T17:21:02.524Z,99.60
2018-07-11T17:23:30.923Z,99.60
2018-07-11T17:25:59.274Z,99.90
2018-07-11T17:28:27.703Z,99.80
2018-07-11T17:30:56.101Z,99.70
2018-07-11T17:33:25.101Z,99.90
2018-07-11T17:35:54.929Z,99.90
2018-07-11T17:38:31.285Z,99.90
2018-07-11T17:41:01.741Z,99.90
2018-07-11T17:43:36.206Z,99.90
2018-07-11T17:46:05.292Z,99.90
2018-07-11T17:48:46.327Z,99.90
2018-07-11T17:52:17.879Z,99.90
2018-07-11T17:55:07.216Z,99.90
2018-07-11T17:57:43.820Z,99.90
2018-07-11T18:00:13.531Z,99.90
2018-07-11T18:02:48.663Z,99.90
2018-07-11T18:05:25.656Z,99.90
2018-07-11T18:07:54.149Z,99.50
2018-07-11T18:10:56.137Z,99.10
2018-07-11T18:13:55.346Z,99.20
2018-07-11T18:16:30.208Z,99.40
2018-07-11T18:19:12.138Z,99.50
2018-07-11T18:21:51.535Z,99.60
2018-07-11T18:26:37.420Z,99.80
2018-07-11T18:29:16.301Z,99.80
2018-07-11T18:31:51.151Z,99.30
2018-07-11T18:34:31.604Z,99.10
2018-07-11T18:37:13.918Z,98.90
2018-07-11T18:39:53.338Z,98.60
2018-07-11T18:42:32.894Z,98.30
2018-07-11T18:47:14.418Z,98.30
2018-07-11T18:50:06.215Z,98.10
2018-07-11T18:52:41.010Z,97.50
2018-07-11T18:56:22.877Z,98.00
2018-07-11T18:58:57.612Z,98.30
2018-07-11T19:03:41.120Z,98.90
2018-07-11T19:06:26.792Z,99.20
2018-07-11T19:09:04.848Z,99.80
2018-07-11T19:11:44.004Z,99.90
2018-07-11T19:14:21.113Z,99.90
2018-07-11T19:17:14.455Z,99.90
2018-07-11T19:19:50.995Z,99.90
2018-07-11T19:22:45.046Z,99.90
2018-07-11T19:25:21.395Z,99.90
2018-07-11T19:28:02.875Z,99.90
2018-07-11T19:30:46.681Z,99.90
2018-07-11T19:33:20.965Z,99.90
2018-07-11T19:38:02.755Z,99.90
2018-07-11T19:40:48.310Z,99.90
2018-07-11T19:45:31.298Z,99.90
2018-07-11T19:48:26.781Z,99.90
2018-07-11T19:51:13.137Z,99.90
2018-07-11T19:53:56.761Z,99.90
2018-07-11T19:58:56.162Z,99.90
2018-07-11T20:01:24.643Z,99.90
2018-07-11T20:03:53.122Z,99.90
2018-07-11T20:06:23.146Z,99.90
2018-07-11T20:08:52.491Z,99.90
2018-07-11T20:11:22.076Z,99.90
2018-07-11T20:13:51.961Z,99.90
2018-07-11T20:16:21.864Z,99.90
2018-07-11T20:18:50.196Z,99.90
2018-07-11T20:21:19.315Z,99.90
2018-07-11T20:23:48.405Z,99.90
2018-07-11T20:26:17.841Z,99.90
2018-07-11T20:28:46.651Z,99.90
2018-07-11T20:31:15.921Z,99.90
2018-07-11T20:33:44.524Z,99.90
2018-07-11T20:36:13.194Z,99.90
2018-07-11T20:38:42.653Z,99.90
2018-07-11T20:41:11.802Z,99.90
2018-07-11T20:43:40.650Z,99.90
2018-07-11T20:46:10.070Z,99.90
2018-07-11T20:48:40.213Z,99.90
2018-07-11T20:51:08.988Z,99.90
2018-07-11T20:53:37.577Z,99.90
2018-07-11T20:56:06.026Z,99.90
2018-07-11T20:58:45.851Z,99.90
2018-07-11T21:01:25.472Z,99.90
2018-07-11T21:04:09.623Z,99.90
2018-07-11T21:07:04.756Z,99.90
2018-07-11T21:09:49.589Z,99.90
2018-07-11T21:13:27.718Z,99.90
2018-07-11T21:17:04.996Z,99.90
2018-07-11T21:19:34.399Z,99.90
2018-07-11T21:22:02.852Z,99.90
2018-07-11T21:24:31.360Z,99.90
2018-07-11T21:27:00.768Z,99.90
2018-07-11T21:29:29.528Z,99.90
2018-07-11T21:31:58.274Z,99.90
2018-07-11T21:34:26.861Z,99.90
2018-07-11T21:36:55.976Z,99.90
2018-07-11T21:39:24.762Z,99.90
2018-07-11T21:41:54.623Z,99.90
2018-07-11T21:44:24.232Z,99.90
2018-07-11T21:46:54.123Z,99.90
2018-07-11T21:49:23.815Z,99.90
2018-07-11T21:51:52.862Z,99.90
2018-07-11T21:54:21.588Z,99.90
2018-07-11T21:56:50.000Z,99.90
2018-07-11T21:59:18.490Z,99.90
2018-07-11T22:01:46.864Z,99.90
2018-07-11T22:04:15.218Z,99.90
2018-07-11T22:06:43.938Z,99.90
2018-07-11T22:09:12.317Z,99.90
2018-07-11T22:11:40.703Z,99.90
2018-07-11T22:14:09.015Z,99.90
2018-07-11T22:16:37.318Z,99.90
2018-07-11T22:19:05.701Z,99.90
2018-07-11T22:21:32.964Z,99.90
2018-07-11T22:24:00.236Z,99.90
2018-07-11T22:26:27.588Z,99.90
2018-07-11T22:28:54.916Z,99.90
2018-07-11T22:31:22.213Z,99.90
2018-07-11T22:33:49.464Z,99.90
2018-07-11T22:36:16.776Z,99.90
2018-07-11T22:38:44.030Z,99.90
2018-07-11T22:41:11.305Z,99.90
2018-07-11T22:43:38.581Z,99.90
2018-07-11T22:46:05.837Z,99.90
2018-07-11T22:48:33.095Z,99.90
2018-07-11T22:51:00.856Z,99.90
2018-07-11T22:53:28.123Z,99.90
2018-07-11T22:55:55.415Z,99.90
2018-07-11T22:58:22.705Z,99.90
2018-07-11T23:00:49.983Z,99.90
2018-07-11T23:03:17.298Z,99.90
2018-07-11T23:05:44.653Z,99.90
2018-07-11T23:08:11.951Z,99.90
2018-07-11T23:10:39.204Z,99.90
2018-07-11T23:13:06.551Z,99.90
2018-07-11T23:15:33.850Z,99.90
2018-07-11T23:18:01.445Z,99.90
2018-07-11T23:20:28.813Z,99.90
2018-07-11T23:22:56.045Z,99.90
2018-07-11T23:25:23.317Z,99.90
2018-07-11T23:27:50.570Z,99.90
2018-07-11T23:30:17.855Z,99.90
2018-07-11T23:32:45.139Z,99.90
2018-07-11T23:37:40.099Z,99.90
2018-07-11T23:40:07.404Z,99.90
2018-07-11T23:42:34.690Z,99.90
2018-07-11T23:45:02.148Z,99.90
2018-07-11T23:47:29.427Z,99.90
2018-07-11T23:49:56.742Z,99.90
2018-07-11T23:52:24.037Z,99.90
2018-07-11T23:54:51.408Z,99.90
2018-07-11T23:57:18.661Z,99.90
2018-07-11T23:59:45.967Z,99.90
